sensor_id;sensor_type;location;lat;lon;timestamp;pressure;altitude;pressure_sealevel;temperature;humidity
6224;BME280;3145;42.726;23.342;2022-12-04T00:00:50;96276.13;;;5.38;nan
6224;BME280;3145;42.726;23.342;2022-12-04T00:03:17;96276.38;;;5.35;nan
6224;BME280;3145;42.726;23.342;2022-12-04T00:05:44;96271.88;;;5.37;nan
6224;BME280;3145;42.726;23.342;2022-12-04T00:08:12;96271.13;;;5.35;nan
6224;BME280;3145;42.726;23.342;2022-12-04T00:10:41;96274.47;;;5.37;nan
6224;BME280;3145;42.726;23.342;2022-12-04T00:13:08;96280.41;;;5.39;nan
6224;BME280;3145;42.726;23.342;2022-12-04T00:15:40;96278.03;;;5.36;nan
6224;BME280;3145;42.726;23.342;2022-12-04T00:18:07;96280.22;;;5.31;nan
6224;BME280;3145;42.726;23.342;2022-12-04T00:20:33;96248.34;;;5.15;nan
6224;BME280;3145;42.726;23.342;2022-12-04T00:23:00;96287.09;;;5.32;nan
6224;BME280;3145;42.726;23.342;2022-12-04T00:25:29;96252.88;;;5.13;nan
6224;BME280;3145;42.726;23.342;2022-12-04T00:27:56;96287.09;;;5.32;nan
6224;BME280;3145;42.726;23.342;2022-12-04T00:30:22;96289.50;;;5.24;nan
6224;BME280;3145;42.726;23.342;2022-12-04T00:32:49;96292.84;;;5.26;nan
6224;BME280;3145;42.726;23.342;2022-12-04T00:35:16;96291.31;;;5.23;nan
6224;BME280;3145;42.726;23.342;2022-12-04T00:37:43;96265.97;;;5.13;nan
6224;BME280;3145;42.726;23.342;2022-12-04T00:40:10;96277.38;;;5.12;nan
6224;BME280;3145;42.726;23.342;2022-12-04T00:42:39;96300.81;;;5.24;nan
6224;BME280;3145;42.726;23.342;2022-12-04T00:45:06;96290.59;;;5.21;nan
6224;BME280;3145;42.726;23.342;2022-12-04T00:47:33;96292.41;;;5.21;nan
6224;BME280;3145;42.726;23.342;2022-12-04T00:49:59;96290.81;;;5.18;nan
6224;BME280;3145;42.726;23.342;2022-12-04T00:52:26;96294.53;;;5.16;nan
6224;BME280;3145;42.726;23.342;2022-12-04T00:54:53;96277.88;;;5.17;nan
6224;BME280;3145;42.726;23.342;2022-12-04T00:57:20;96293.44;;;5.18;nan
6224;BME280;3145;42.726;23.342;2022-12-04T00:59:48;96295.00;;;5.21;nan
6224;BME280;3145;42.726;23.342;2022-12-04T01:02:15;96291.66;;;5.19;nan
6224;BME280;3145;42.726;23.342;2022-12-04T01:04:42;96292.75;;;5.16;nan
6224;BME280;3145;42.726;23.342;2022-12-04T01:07:08;96295.50;;;5.15;nan
6224;BME280;3145;42.726;23.342;2022-12-04T01:09:35;96294.31;;;5.07;nan
6224;BME280;3145;42.726;23.342;2022-12-04T01:12:02;96285.25;;;5.12;nan
6224;BME280;3145;42.726;23.342;2022-12-04T01:14:29;96293.22;;;5.10;nan
6224;BME280;3145;42.726;23.342;2022-12-04T01:16:57;96294.53;;;5.16;nan
6224;BME280;3145;42.726;23.342;2022-12-04T01:19:24;96292.75;;;5.16;nan
6224;BME280;3145;42.726;23.342;2022-12-04T01:21:51;96293.22;;;5.10;nan
6224;BME280;3145;42.726;23.342;2022-12-04T01:24:17;96282.41;;;5.03;nan
6224;BME280;3145;42.726;23.342;2022-12-04T01:26:44;96285.25;;;5.12;nan
6224;BME280;3145;42.726;23.342;2022-12-04T01:29:11;96275.28;;;5.06;nan
6224;BME280;3145;42.726;23.342;2022-12-04T01:31:37;96280.25;;;5.08;nan
6224;BME280;3145;42.726;23.342;2022-12-04T01:34:05;96211.47;;;4.64;nan
6224;BME280;3145;42.726;23.342;2022-12-04T01:36:32;96279.31;;;5.10;nan
6224;BME280;3145;42.726;23.342;2022-12-04T01:38:59;96278.47;;;5.09;nan
6224;BME280;3145;42.726;23.342;2022-12-04T01:41:27;96281.97;;;4.98;nan
6224;BME280;3145;42.726;23.342;2022-12-04T01:44:12;96287.75;;;5.02;nan
6224;BME280;3145;42.726;23.342;2022-12-04T01:46:40;96284.56;;;4.98;nan
6224;BME280;3145;42.726;23.342;2022-12-04T01:49:11;96281.50;;;4.93;nan
6224;BME280;3145;42.726;23.342;2022-12-04T01:51:40;96277.19;;;4.92;nan
6224;BME280;3145;42.726;23.342;2022-12-04T01:54:09;96266.88;;;4.91;nan
6224;BME280;3145;42.726;23.342;2022-12-04T01:56:40;96262.34;;;4.82;nan
6224;BME280;3145;42.726;23.342;2022-12-04T01:59:08;96271.94;;;4.92;nan
6224;BME280;3145;42.726;23.342;2022-12-04T02:01:41;96257.09;;;4.82;nan
6224;BME280;3145;42.726;23.342;2022-12-04T02:04:11;96278.28;;;4.90;nan
6224;BME280;3145;42.726;23.342;2022-12-04T02:06:37;96267.69;;;4.91;nan
6224;BME280;3145;42.726;23.342;2022-12-04T02:09:04;96278.16;;;4.91;nan
6224;BME280;3145;42.726;23.342;2022-12-04T02:11:37;96262.94;;;4.85;nan
6224;BME280;3145;42.726;23.342;2022-12-04T02:14:11;96240.25;;;4.75;nan
6224;BME280;3145;42.726;23.342;2022-12-04T02:16:45;96259.13;;;4.89;nan
6224;BME280;3145;42.726;23.342;2022-12-04T02:19:36;96258.88;;;4.92;nan
6224;BME280;3145;42.726;23.342;2022-12-04T02:22:17;96255.31;;;4.93;nan
6224;BME280;3145;42.726;23.342;2022-12-04T02:24:52;96246.28;;;4.86;nan
6224;BME280;3145;42.726;23.342;2022-12-04T02:27:43;96252.22;;;4.88;nan
6224;BME280;3145;42.726;23.342;2022-12-04T02:30:12;96260.56;;;4.93;nan
6224;BME280;3145;42.726;23.342;2022-12-04T02:32:42;96193.75;;;4.56;nan
6224;BME280;3145;42.726;23.342;2022-12-04T02:35:13;96256.47;;;5.00;nan
6224;BME280;3145;42.726;23.342;2022-12-04T02:37:43;96260.03;;;4.99;nan
6224;BME280;3145;42.726;23.342;2022-12-04T02:40:16;96249.13;;;4.94;nan
6224;BME280;3145;42.726;23.342;2022-12-04T02:42:50;96217.03;;;4.70;nan
6224;BME280;3145;42.726;23.342;2022-12-04T02:45:20;96241.50;;;4.91;nan
6224;BME280;3145;42.726;23.342;2022-12-04T02:47:51;96250.19;;;4.92;nan
6224;BME280;3145;42.726;23.342;2022-12-04T02:50:20;96243.16;;;4.92;nan
6224;BME280;3145;42.726;23.342;2022-12-04T02:52:51;96248.75;;;4.99;nan
6224;BME280;3145;42.726;23.342;2022-12-04T02:55:23;96255.53;;;5.02;nan
6224;BME280;3145;42.726;23.342;2022-12-04T02:57:57;96248.88;;;4.97;nan
6224;BME280;3145;42.726;23.342;2022-12-04T03:00:26;96260.16;;;4.98;nan
6224;BME280;3145;42.726;23.342;2022-12-04T03:02:57;96252.91;;;5.02;nan
6224;BME280;3145;42.726;23.342;2022-12-04T03:05:32;96245.41;;;4.97;nan
6224;BME280;3145;42.726;23.342;2022-12-04T03:08:05;96248.38;;;4.92;nan
6224;BME280;3145;42.726;23.342;2022-12-04T03:10:37;96257.88;;;5.04;nan
6224;BME280;3145;42.726;23.342;2022-12-04T03:13:09;96253.84;;;5.00;nan
6224;BME280;3145;42.726;23.342;2022-12-04T03:15:40;96244.94;;;5.03;nan
6224;BME280;3145;42.726;23.342;2022-12-04T03:18:13;96232.31;;;4.97;nan
6224;BME280;3145;42.726;23.342;2022-12-04T03:20:43;96256.72;;;4.97;nan
6224;BME280;3145;42.726;23.342;2022-12-04T03:23:16;96248.38;;;5.03;nan
6224;BME280;3145;42.726;23.342;2022-12-04T03:25:56;96244.00;;;4.93;nan
6224;BME280;3145;42.726;23.342;2022-12-04T03:28:28;96235.06;;;4.95;nan
6224;BME280;3145;42.726;23.342;2022-12-04T03:31:05;96233.53;;;4.93;nan
6224;BME280;3145;42.726;23.342;2022-12-04T03:33:37;96246.50;;;4.94;nan
6224;BME280;3145;42.726;23.342;2022-12-04T03:36:10;96239.09;;;4.99;nan
6224;BME280;3145;42.726;23.342;2022-12-04T03:38:44;96230.78;;;4.94;nan
6224;BME280;3145;42.726;23.342;2022-12-04T03:41:17;96232.69;;;4.92;nan
6224;BME280;3145;42.726;23.342;2022-12-04T03:43:52;96244.56;;;4.96;nan
6224;BME280;3145;42.726;23.342;2022-12-04T03:46:25;96238.75;;;4.93;nan
6224;BME280;3145;42.726;23.342;2022-12-04T03:48:58;96242.56;;;4.89;nan
6224;BME280;3145;42.726;23.342;2022-12-04T03:51:32;96248.03;;;4.97;nan
6224;BME280;3145;42.726;23.342;2022-12-04T03:54:03;96239.34;;;4.96;nan
6224;BME280;3145;42.726;23.342;2022-12-04T03:56:35;96234.94;;;4.97;nan
6224;BME280;3145;42.726;23.342;2022-12-04T03:59:08;96243.38;;;5.00;nan
6224;BME280;3145;42.726;23.342;2022-12-04T04:01:38;96214.75;;;4.77;nan
6224;BME280;3145;42.726;23.342;2022-12-04T04:04:10;96237.19;;;5.02;nan
6224;BME280;3145;42.726;23.342;2022-12-04T04:06:43;96251.50;;;4.97;nan
6224;BME280;3145;42.726;23.342;2022-12-04T04:09:25;96247.91;;;4.98;nan
6224;BME280;3145;42.726;23.342;2022-12-04T04:12:01;96219.34;;;4.95;nan
6224;BME280;3145;42.726;23.342;2022-12-04T04:14:35;96251.84;;;5.04;nan
6224;BME280;3145;42.726;23.342;2022-12-04T04:17:24;96240.75;;;5.00;nan
6224;BME280;3145;42.726;23.342;2022-12-04T04:20:13;96229.81;;;4.95;nan
6224;BME280;3145;42.726;23.342;2022-12-04T04:22:59;96242.09;;;4.95;nan
6224;BME280;3145;42.726;23.342;2022-12-04T04:25:46;96247.91;;;4.98;nan
6224;BME280;3145;42.726;23.342;2022-12-04T04:28:28;96253.63;;;4.92;nan
6224;BME280;3145;42.726;23.342;2022-12-04T04:31:04;96245.78;;;4.92;nan
6224;BME280;3145;42.726;23.342;2022-12-04T04:33:36;96237.00;;;4.82;nan
6224;BME280;3145;42.726;23.342;2022-12-04T04:36:09;96256.50;;;4.89;nan
6224;BME280;3145;42.726;23.342;2022-12-04T04:38:44;96250.88;;;4.94;nan
6224;BME280;3145;42.726;23.342;2022-12-04T04:41:19;96249.75;;;4.87;nan
6224;BME280;3145;42.726;23.342;2022-12-04T04:43:52;96257.22;;;4.91;nan
6224;BME280;3145;42.726;23.342;2022-12-04T04:46:27;96257.09;;;4.93;nan
6224;BME280;3145;42.726;23.342;2022-12-04T04:48:57;96254.13;;;4.86;nan
6224;BME280;3145;42.726;23.342;2022-12-04T04:51:27;96261.75;;;4.89;nan
6224;BME280;3145;42.726;23.342;2022-12-04T04:53:55;96265.44;;;4.87;nan
6224;BME280;3145;42.726;23.342;2022-12-04T04:56:24;96263.75;;;4.86;nan
6224;BME280;3145;42.726;23.342;2022-12-04T04:58:50;96258.63;;;4.84;nan
6224;BME280;3145;42.726;23.342;2022-12-04T05:01:19;96257.72;;;4.85;nan
6224;BME280;3145;42.726;23.342;2022-12-04T05:03:48;96268.19;;;4.85;nan
6224;BME280;3145;42.726;23.342;2022-12-04T05:06:15;96262.94;;;4.74;nan
6224;BME280;3145;42.726;23.342;2022-12-04T05:08:42;96269.84;;;4.86;nan
6224;BME280;3145;42.726;23.342;2022-12-04T05:11:12;96271.38;;;4.89;nan
6224;BME280;3145;42.726;23.342;2022-12-04T05:13:39;96276.50;;;4.90;nan
6224;BME280;3145;42.726;23.342;2022-12-04T05:16:10;96274.56;;;4.92;nan
6224;BME280;3145;42.726;23.342;2022-12-04T05:18:37;96279.22;;;4.89;nan
6224;BME280;3145;42.726;23.342;2022-12-04T05:21:06;96217.56;;;4.53;nan
6224;BME280;3145;42.726;23.342;2022-12-04T05:23:32;96277.56;;;4.88;nan
6224;BME280;3145;42.726;23.342;2022-12-04T05:25:59;96278.75;;;4.95;nan
6224;BME280;3145;42.726;23.342;2022-12-04T05:28:26;96291.59;;;4.98;nan
6224;BME280;3145;42.726;23.342;2022-12-04T05:30:54;96291.69;;;4.96;nan
6224;BME280;3145;42.726;23.342;2022-12-04T05:33:21;96287.19;;;4.98;nan
6224;BME280;3145;42.726;23.342;2022-12-04T05:35:55;96268.63;;;4.90;nan
6224;BME280;3145;42.726;23.342;2022-12-04T05:38:23;96279.56;;;5.07;nan
6224;BME280;3145;42.726;23.342;2022-12-04T05:40:50;96289.31;;;5.04;nan
6224;BME280;3145;42.726;23.342;2022-12-04T05:43:17;96301.09;;;5.10;nan
6224;BME280;3145;42.726;23.342;2022-12-04T05:45:44;96295.50;;;5.15;nan
6224;BME280;3145;42.726;23.342;2022-12-04T05:48:10;96288.09;;;5.08;nan
6224;BME280;3145;42.726;23.342;2022-12-04T05:50:37;96292.19;;;5.13;nan
6224;BME280;3145;42.726;23.342;2022-12-04T05:53:04;96285.84;;;5.15;nan
6224;BME280;3145;42.726;23.342;2022-12-04T05:55:32;96294.66;;;5.14;nan
6224;BME280;3145;42.726;23.342;2022-12-04T05:57:59;96296.22;;;5.17;nan
6224;BME280;3145;42.726;23.342;2022-12-04T06:00:27;96300.25;;;5.21;nan
6224;BME280;3145;42.726;23.342;2022-12-04T06:02:53;96300.25;;;5.21;nan
6224;BME280;3145;42.726;23.342;2022-12-04T06:05:20;96298.56;;;5.20;nan
6224;BME280;3145;42.726;23.342;2022-12-04T06:07:47;96294.75;;;5.24;nan
6224;BME280;3145;42.726;23.342;2022-12-04T06:10:13;96289.78;;;5.21;nan
6224;BME280;3145;42.726;23.342;2022-12-04T06:12:42;96294.28;;;5.30;nan
6224;BME280;3145;42.726;23.342;2022-12-04T06:15:09;96270.03;;;5.17;nan
6224;BME280;3145;42.726;23.342;2022-12-04T06:17:36;96282.13;;;5.29;nan
6224;BME280;3145;42.726;23.342;2022-12-04T06:20:03;96299.84;;;5.36;nan
6224;BME280;3145;42.726;23.342;2022-12-04T06:22:30;96304.31;;;5.45;nan
6224;BME280;3145;42.726;23.342;2022-12-04T06:24:57;96293.03;;;5.45;nan
6224;BME280;3145;42.726;23.342;2022-12-04T06:27:23;96319.22;;;5.45;nan
6224;BME280;3145;42.726;23.342;2022-12-04T06:29:52;96298.50;;;5.42;nan
6224;BME280;3145;42.726;23.342;2022-12-04T06:32:18;96298.28;;;5.45;nan
6224;BME280;3145;42.726;23.342;2022-12-04T06:34:45;96309.00;;;5.42;nan
6224;BME280;3145;42.726;23.342;2022-12-04T06:37:11;96299.94;;;5.46;nan
6224;BME280;3145;42.726;23.342;2022-12-04T06:39:38;96315.66;;;5.46;nan
6224;BME280;3145;42.726;23.342;2022-12-04T06:42:05;96305.50;;;5.52;nan
6224;BME280;3145;42.726;23.342;2022-12-04T06:44:32;96255.34;;;5.25;nan
6224;BME280;3145;42.726;23.342;2022-12-04T06:47:00;96310.41;;;5.46;nan
6224;BME280;3145;42.726;23.342;2022-12-04T06:49:27;96312.84;;;5.58;nan
6224;BME280;3145;42.726;23.342;2022-12-04T06:51:53;96316.56;;;5.56;nan
6224;BME280;3145;42.726;23.342;2022-12-04T06:54:21;96307.50;;;5.60;nan
6224;BME280;3145;42.726;23.342;2022-12-04T06:56:48;96323.94;;;5.62;nan
6224;BME280;3145;42.726;23.342;2022-12-04T06:59:15;96312.00;;;5.69;nan
6224;BME280;3145;42.726;23.342;2022-12-04T07:01:42;96306.47;;;5.72;nan
6224;BME280;3145;42.726;23.342;2022-12-04T07:04:10;96307.66;;;5.79;nan
6224;BME280;3145;42.726;23.342;2022-12-04T07:06:38;96300.84;;;5.87;nan
6224;BME280;3145;42.726;23.342;2022-12-04T07:09:06;96307.59;;;6.01;nan
6224;BME280;3145;42.726;23.342;2022-12-04T07:11:35;96306.63;;;6.22;nan
6224;BME280;3145;42.726;23.342;2022-12-04T07:14:03;96311.41;;;6.38;nan
6224;BME280;3145;42.726;23.342;2022-12-04T07:16:29;96305.72;;;6.63;nan
6224;BME280;3145;42.726;23.342;2022-12-04T07:18:56;96234.47;;;6.37;nan
6224;BME280;3145;42.726;23.342;2022-12-04T07:21:26;96310.63;;;7.16;nan
6224;BME280;3145;42.726;23.342;2022-12-04T07:23:55;96316.97;;;7.14;nan
6224;BME280;3145;42.726;23.342;2022-12-04T07:26:23;96321.06;;;6.97;nan
6224;BME280;3145;42.726;23.342;2022-12-04T07:28:50;96311.19;;;7.10;nan
6224;BME280;3145;42.726;23.342;2022-12-04T07:31:19;96311.72;;;7.14;nan
6224;BME280;3145;42.726;23.342;2022-12-04T07:33:46;96325.06;;;7.31;nan
6224;BME280;3145;42.726;23.342;2022-12-04T07:36:15;96303.03;;;7.23;nan
6224;BME280;3145;42.726;23.342;2022-12-04T07:38:45;96312.06;;;7.39;nan
6224;BME280;3145;42.726;23.342;2022-12-04T07:41:12;96320.34;;;7.25;nan
6224;BME280;3145;42.726;23.342;2022-12-04T07:43:39;96323.25;;;7.32;nan
6224;BME280;3145;42.726;23.342;2022-12-04T07:46:08;96330.69;;;7.27;nan
6224;BME280;3145;42.726;23.342;2022-12-04T07:48:35;96306.47;;;7.14;nan
6224;BME280;3145;42.726;23.342;2022-12-04T07:51:03;96323.75;;;7.16;nan
6224;BME280;3145;42.726;23.342;2022-12-04T07:53:30;96330.34;;;6.92;nan
6224;BME280;3145;42.726;23.342;2022-12-04T07:55:58;96319.50;;;6.76;nan
6224;BME280;3145;42.726;23.342;2022-12-04T07:58:25;96327.38;;;6.85;nan
6224;BME280;3145;42.726;23.342;2022-12-04T08:00:51;96320.34;;;6.86;nan
6224;BME280;3145;42.726;23.342;2022-12-04T08:03:18;96319.38;;;6.87;nan
6224;BME280;3145;42.726;23.342;2022-12-04T08:05:45;96329.31;;;6.83;nan
6224;BME280;3145;42.726;23.342;2022-12-04T08:08:11;96309.31;;;6.92;nan
6224;BME280;3145;42.726;23.342;2022-12-04T08:10:38;96325.84;;;6.83;nan
6224;BME280;3145;42.726;23.342;2022-12-04T08:13:07;96330.41;;;6.81;nan
6224;BME280;3145;42.726;23.342;2022-12-04T08:15:34;96325.44;;;6.78;nan
6224;BME280;3145;42.726;23.342;2022-12-04T08:18:00;96313.41;;;6.75;nan
6224;BME280;3145;42.726;23.342;2022-12-04T08:20:27;96317.16;;;6.82;nan
6224;BME280;3145;42.726;23.342;2022-12-04T08:22:54;96305.97;;;6.90;nan
6224;BME280;3145;42.726;23.342;2022-12-04T08:25:21;96307.38;;;6.94;nan
6224;BME280;3145;42.726;23.342;2022-12-04T08:27:47;96292.44;;;6.85;nan
6224;BME280;3145;42.726;23.342;2022-12-04T08:30:16;96318.31;;;6.99;nan
6224;BME280;3145;42.726;23.342;2022-12-04T08:32:43;96309.63;;;6.98;nan
6224;BME280;3145;42.726;23.342;2022-12-04T08:35:09;96323.03;;;7.05;nan
6224;BME280;3145;42.726;23.342;2022-12-04T08:37:36;96317.78;;;7.05;nan
6224;BME280;3145;42.726;23.342;2022-12-04T08:40:04;96315.06;;;7.16;nan
6224;BME280;3145;42.726;23.342;2022-12-04T08:42:31;96315.06;;;7.16;nan
6224;BME280;3145;42.726;23.342;2022-12-04T08:44:57;96321.56;;;7.12;nan
6224;BME280;3145;42.726;23.342;2022-12-04T08:47:25;96320.84;;;7.10;nan
6224;BME280;3145;42.726;23.342;2022-12-04T08:49:52;96325.03;;;7.22;nan
6224;BME280;3145;42.726;23.342;2022-12-04T08:52:19;96312.84;;;7.21;nan
6224;BME280;3145;42.726;23.342;2022-12-04T08:54:46;96316.16;;;7.23;nan
6224;BME280;3145;42.726;23.342;2022-12-04T08:57:12;96323.38;;;7.21;nan
6224;BME280;3145;42.726;23.342;2022-12-04T08:59:39;96329.16;;;7.15;nan
6224;BME280;3145;42.726;23.342;2022-12-04T09:02:07;96313.13;;;7.18;nan
6224;BME280;3145;42.726;23.342;2022-12-04T09:04:36;96310.59;;;7.07;nan
6224;BME280;3145;42.726;23.342;2022-12-04T09:07:02;96290.97;;;7.11;nan
6224;BME280;3145;42.726;23.342;2022-12-04T09:09:29;96288.06;;;7.14;nan
6224;BME280;3145;42.726;23.342;2022-12-04T09:11:56;96285.28;;;7.06;nan
6224;BME280;3145;42.726;23.342;2022-12-04T09:14:22;96283.78;;;7.03;nan
6224;BME280;3145;42.726;23.342;2022-12-04T09:16:51;96293.97;;;6.97;nan
6224;BME280;3145;42.726;23.342;2022-12-04T09:19:17;96272.91;;;6.78;nan
6224;BME280;3145;42.726;23.342;2022-12-04T09:21:46;96279.59;;;6.91;nan
6224;BME280;3145;42.726;23.342;2022-12-04T09:24:13;96307.66;;;7.00;nan
6224;BME280;3145;42.726;23.342;2022-12-04T09:26:39;96276.16;;;7.00;nan
6224;BME280;3145;42.726;23.342;2022-12-04T09:29:07;96265.38;;;7.03;nan
6224;BME280;3145;42.726;23.342;2022-12-04T09:31:33;96279.88;;;6.98;nan
6224;BME280;3145;42.726;23.342;2022-12-04T09:34:01;96261.88;;;6.93;nan
6224;BME280;3145;42.726;23.342;2022-12-04T09:36:27;96284.78;;;7.12;nan
6224;BME280;3145;42.726;23.342;2022-12-04T09:38:56;96269.91;;;6.92;nan
6224;BME280;3145;42.726;23.342;2022-12-04T09:44:27;96271.31;;;6.96;nan
6224;BME280;3145;42.726;23.342;2022-12-04T09:46:58;96263.84;;;7.01;nan
6224;BME280;3145;42.726;23.342;2022-12-04T09:49:27;96254.16;;;6.92;nan
6224;BME280;3145;42.726;23.342;2022-12-04T09:51:58;96251.09;;;6.87;nan
6224;BME280;3145;42.726;23.342;2022-12-04T09:54:29;96264.34;;;6.85;nan
6224;BME280;3145;42.726;23.342;2022-12-04T09:57:00;96241.69;;;6.84;nan
6224;BME280;3145;42.726;23.342;2022-12-04T09:59:30;96262.03;;;6.92;nan
6224;BME280;3145;42.726;23.342;2022-12-04T10:02:00;96234.38;;;6.97;nan
6224;BME280;3145;42.726;23.342;2022-12-04T10:04:29;96259.56;;;7.00;nan
6224;BME280;3145;42.726;23.342;2022-12-04T10:07:01;96220.97;;;7.00;nan
6224;BME280;3145;42.726;23.342;2022-12-04T10:09:38;96226.22;;;7.00;nan
6224;BME280;3145;42.726;23.342;2022-12-04T10:12:15;96235.63;;;6.84;nan
6224;BME280;3145;42.726;23.342;2022-12-04T10:15:00;96232.69;;;6.87;nan
6224;BME280;3145;42.726;23.342;2022-12-04T10:17:42;96196.06;;;6.95;nan
6224;BME280;3145;42.726;23.342;2022-12-04T10:20:22;96196.69;;;7.08;nan
6224;BME280;3145;42.726;23.342;2022-12-04T10:23:01;96201.09;;;7.07;nan
6224;BME280;3145;42.726;23.342;2022-12-04T10:25:34;96204.69;;;7.16;nan
6224;BME280;3145;42.726;23.342;2022-12-04T10:28:09;96206.31;;;6.98;nan
6224;BME280;3145;42.726;23.342;2022-12-04T10:30:40;96194.69;;;6.91;nan
6224;BME280;3145;42.726;23.342;2022-12-04T10:33:15;96194.16;;;6.87;nan
6224;BME280;3145;42.726;23.342;2022-12-04T10:35:44;96197.75;;;6.96;nan
6224;BME280;3145;42.726;23.342;2022-12-04T10:38:16;96190.81;;;6.95;nan
6224;BME280;3145;42.726;23.342;2022-12-04T10:40:49;96181.44;;;7.02;nan
6224;BME280;3145;42.726;23.342;2022-12-04T10:43:25;96179.63;;;6.93;nan
6224;BME280;3145;42.726;23.342;2022-12-04T10:45:54;96169.94;;;6.93;nan
6224;BME280;3145;42.726;23.342;2022-12-04T10:48:23;96183.53;;;7.08;nan
6224;BME280;3145;42.726;23.342;2022-12-04T10:50:51;96172.31;;;6.96;nan
6224;BME280;3145;42.726;23.342;2022-12-04T10:53:24;96188.78;;;7.08;nan
6224;BME280;3145;42.726;23.342;2022-12-04T10:55:55;96181.56;;;6.91;nan
6224;BME280;3145;42.726;23.342;2022-12-04T10:58:22;96172.88;;;7.00;nan
6224;BME280;3145;42.726;23.342;2022-12-04T11:01:00;96188.66;;;7.00;nan
6224;BME280;3145;42.726;23.342;2022-12-04T11:03:28;96178.13;;;6.90;nan
6224;BME280;3145;42.726;23.342;2022-12-04T11:05:57;96195.13;;;6.96;nan
6224;BME280;3145;42.726;23.342;2022-12-04T11:08:30;96199.84;;;7.02;nan
6224;BME280;3145;42.726;23.342;2022-12-04T11:11:01;96179.78;;;7.01;nan
6224;BME280;3145;42.726;23.342;2022-12-04T11:13:29;96180.91;;;7.08;nan
6224;BME280;3145;42.726;23.342;2022-12-04T11:15:57;96165.41;;;7.05;nan
6224;BME280;3145;42.726;23.342;2022-12-04T11:18:25;96169.16;;;7.12;nan
6224;BME280;3145;42.726;23.342;2022-12-04T11:20:55;96167.63;;;7.19;nan
6224;BME280;3145;42.726;23.342;2022-12-04T11:23:24;96138.88;;;7.17;nan
6224;BME280;3145;42.726;23.342;2022-12-04T11:25:53;96155.59;;;7.35;nan
6224;BME280;3145;42.726;23.342;2022-12-04T11:28:24;96167.88;;;7.54;nan
6224;BME280;3145;42.726;23.342;2022-12-04T11:30:54;96165.69;;;7.40;nan
6224;BME280;3145;42.726;23.342;2022-12-04T11:33:27;96161.25;;;7.31;nan
6224;BME280;3145;42.726;23.342;2022-12-04T11:35:58;96182.84;;;7.44;nan
6224;BME280;3145;42.726;23.342;2022-12-04T11:38:28;96176.03;;;7.51;nan
6224;BME280;3145;42.726;23.342;2022-12-04T11:40:56;96161.78;;;7.63;nan
6224;BME280;3145;42.726;23.342;2022-12-04T11:43:27;96163.13;;;7.76;nan
6224;BME280;3145;42.726;23.342;2022-12-04T11:45:56;96166.75;;;7.75;nan
6224;BME280;3145;42.726;23.342;2022-12-04T11:48:24;96159.56;;;7.77;nan
6224;BME280;3145;42.726;23.342;2022-12-04T11:50:58;96142.69;;;7.70;nan
6224;BME280;3145;42.726;23.342;2022-12-04T11:53:41;96177.66;;;7.90;nan
6224;BME280;3145;42.726;23.342;2022-12-04T11:56:18;96131.63;;;7.57;nan
6224;BME280;3145;42.726;23.342;2022-12-04T11:59:27;96173.91;;;7.92;nan
6224;BME280;3145;42.726;23.342;2022-12-04T12:02:03;96175.59;;;7.93;nan
6224;BME280;3145;42.726;23.342;2022-12-04T12:04:49;96166.00;;;7.92;nan
6224;BME280;3145;42.726;23.342;2022-12-04T12:07:35;96164.97;;;7.76;nan
6224;BME280;3145;42.726;23.342;2022-12-04T12:10:08;96169.00;;;7.61;nan
6224;BME280;3145;42.726;23.342;2022-12-04T12:12:45;96163.00;;;7.68;nan
6224;BME280;3145;42.726;23.342;2022-12-04T12:15:23;96169.00;;;7.61;nan
6224;BME280;3145;42.726;23.342;2022-12-04T12:18:02;96190.31;;;7.39;nan
6224;BME280;3145;42.726;23.342;2022-12-04T12:20:37;96175.38;;;7.39;nan
6224;BME280;3145;42.726;23.342;2022-12-04T12:23:33;96175.63;;;7.46;nan
6224;BME280;3145;42.726;23.342;2022-12-04T12:26:08;96182.16;;;7.51;nan
6224;BME280;3145;42.726;23.342;2022-12-04T12:28:52;96163.00;;;7.68;nan
6224;BME280;3145;42.726;23.342;2022-12-04T12:31:47;96177.41;;;7.74;nan
6224;BME280;3145;42.726;23.342;2022-12-04T12:34:21;96174.78;;;7.74;nan
6224;BME280;3145;42.726;23.342;2022-12-04T12:36:53;96189.72;;;7.83;nan
6224;BME280;3145;42.726;23.342;2022-12-04T12:39:24;96193.06;;;7.66;nan
6224;BME280;3145;42.726;23.342;2022-12-04T12:41:53;96192.66;;;7.42;nan
6224;BME280;3145;42.726;23.342;2022-12-04T12:44:26;96180.75;;;7.38;nan
6224;BME280;3145;42.726;23.342;2022-12-04T12:47:00;96177.16;;;7.39;nan
6224;BME280;3145;42.726;23.342;2022-12-04T12:49:37;96194.31;;;7.14;nan
6224;BME280;3145;42.726;23.342;2022-12-04T12:52:16;96182.28;;;7.12;nan
6224;BME280;3145;42.726;23.342;2022-12-04T12:54:49;96167.31;;;6.93;nan
6224;BME280;3145;42.726;23.342;2022-12-04T12:57:23;96169.69;;;6.96;nan
6224;BME280;3145;42.726;23.342;2022-12-04T12:59:56;96177.28;;;6.90;nan
6224;BME280;3145;42.726;23.342;2022-12-04T13:02:28;96175.91;;;6.95;nan
6224;BME280;3145;42.726;23.342;2022-12-04T13:04:57;96181.16;;;6.86;nan
6224;BME280;3145;42.726;23.342;2022-12-04T13:07:30;96185.00;;;6.82;nan
6224;BME280;3145;42.726;23.342;2022-12-04T13:10:02;96173.38;;;6.75;nan
6224;BME280;3145;42.726;23.342;2022-12-04T13:12:36;96165.91;;;6.61;nan
6224;BME280;3145;42.726;23.342;2022-12-04T13:15:13;96185.78;;;6.54;nan
6224;BME280;3145;42.726;23.342;2022-12-04T13:17:42;96173.63;;;6.53;nan
6224;BME280;3145;42.726;23.342;2022-12-04T13:20:15;96183.53;;;6.49;nan
6224;BME280;3145;42.726;23.342;2022-12-04T13:22:51;96176.88;;;6.45;nan
6224;BME280;3145;42.726;23.342;2022-12-04T13:25:31;96173.16;;;6.38;nan
6224;BME280;3145;42.726;23.342;2022-12-04T13:28:11;96154.78;;;6.38;nan
6224;BME280;3145;42.726;23.342;2022-12-04T13:30:49;96183.91;;;6.35;nan
6224;BME280;3145;42.726;23.342;2022-12-04T13:33:39;96172.16;;;6.30;nan
6224;BME280;3145;42.726;23.342;2022-12-04T13:36:26;96175.47;;;6.32;nan
6224;BME280;3145;42.726;23.342;2022-12-04T13:39:11;96180.09;;;6.19;nan
6224;BME280;3145;42.726;23.342;2022-12-04T13:41:45;96168.22;;;6.15;nan
6224;BME280;3145;42.726;23.342;2022-12-04T13:44:17;96172.31;;;6.08;nan
6224;BME280;3145;42.726;23.342;2022-12-04T13:46:53;96101.75;;;5.75;nan
6224;BME280;3145;42.726;23.342;2022-12-04T13:49:26;96179.69;;;6.14;nan
6224;BME280;3145;42.726;23.342;2022-12-04T13:51:55;96185.59;;;6.16;nan
6224;BME280;3145;42.726;23.342;2022-12-04T13:54:30;96189.75;;;6.09;nan
6224;BME280;3145;42.726;23.342;2022-12-04T13:57:16;96182.81;;;6.08;nan
6224;BME280;3145;42.726;23.342;2022-12-04T13:59:44;96191.41;;;6.10;nan
6224;BME280;3145;42.726;23.342;2022-12-04T14:02:30;96189.75;;;6.09;nan
6224;BME280;3145;42.726;23.342;2022-12-04T14:05:02;96187.63;;;6.03;nan
6224;BME280;3145;42.726;23.342;2022-12-04T14:07:32;96178.41;;;6.08;nan